Terminal Aerodrome Forecast
Issued by NWS Denver/Boulder, CO

Home | Current Version | Previous Version | Text Only | Print | Product List | Glossary On
Versions: 1 2 3 4 5 6 7 8 9 10 11 12 13 14 15 16 17 18 19 20 21 22 23 24 25 26 27 28
000
FTUS45 KBOU 282320
TAFDEN
TAF
KDEN 282320Z 2900/3006 11011KT P6SM FEW120
     FM290100 15008G18KT P6SM FEW100
     FM290600 19009G24KT P6SM FEW220
     FM291400 22010KT P6SM FEW220
     FM292000 15012KT P6SM SCT120 BKN220
     FM300300 18012KT P6SM SCT120 BKN220=

USA.gov is the U.S. government's official web portal to all federal, state and local government web resources and services.